Duluth, MN

6:33 AM CDT on August 31, 2014 (GMT -0500)
Chester Park WX | Change Station
CLOSE
Current Station
Personal Weather Station
Location: Duluth, MN
Elevation: 1040 ft
Nearby Weather Stations

Elev 1040 ft 46.81 °N, 92.08 °W | Updated 3 minutes ago

Overcast
Overcast
58.5 °F
Feels Like 58.5 °F
N
0.0
Wind Variable Wind from SSW
Gusts 0.0 mph

Today
High -- | Low -- °F
--% Chance of Precip.
Yesterday
High -- | Low -- °F
Precip. -- in
6:26 AM 7:49 PM
Waxing Crescent, 30% visible
Pressure 29.88 in
Visibility 6.0 miles
Clouds Overcast 200 ft
Dew Point 58 °F
Humidity 98%
Rainfall 0.00 in
Snow Depth Not available.
UV 0 out of 12
Pollen 5.90 out of 12
Air Quality Not available.
Flu Activity Not available.
METAR KDLH 311055Z 12009KT 6SM BR OVC002 15/13 A2987 RMK AO2 SLP117 T01500133

More Conditions Fewer Conditions

Pressure 29.88 in
Visibility 6.0 miles
Clouds Overcast 200 ft
Dew Point 58 °F
Humidity 98%
Rainfall 0.00 in
Snow Depth Not available.
UV 0 out of 12
Pollen 5.90 out of 12
Air Quality Not available.
Flu Activity Not available.
METAR KDLH 311055Z 12009KT 6SM BR OVC002 15/13 A2987 RMK AO2 SLP117 T01500133

More Conditions Fewer Conditions

10-Day Weather Forecast

Almanac

Astronomy

Aug. 31, 2014 Rise Set
Actual Time 6:26 AM CDT 7:49 PM CDT
Civil Twilight 5:55 AM CDT 8:20 PM CDT
Nautical Twilight 5:16 AM CDT 8:58 PM CDT
Astronomical Twilight 4:36 AM CDT 9:39 PM CDT
Moon 12:36 PM CDT 10:41 PM CDT
Length of Visible Light 14h 25m
Length of Day
13h 22m
Tomorrow will be 3m 13s shorter.
Waxing Crescent, 30% of the Moon is Illuminated
Today
Waxing Crescent
Sep 2
First Quarter
Sep 8
Full
Sep 15
Last Quarter
Sep 24
New

Today's Extremes

State Highs State Lows

Community

WunderPhotos

Upload Photos

1,748,843 photos uploaded!

Nearby

Snow Depth

Station Depth Elevation
No new snow has been reported.

Earthquake Activity

City Distance Mag. Time & Date
No recent earthquake activity has been reported nearby.
Minimum magnitude displayed is 2.5.

Coastal Water Temperatures

Place Temperature
Duluth, MN 64.9 °F

Nearby Weather Stations